美保飛行場の過去48時間の天気

美保飛行場 (Miho)

現在時刻: 4/26 20:24 JST (4/26 11:24 UTC) 以下の時間は現地時間です。

過去48時間のMETAR気象情報
時間 風向 風速(m/s) 視程 気温(℃) 湿度(%) 気圧(hPa) 天気現象
26 20:00 北東 3 10km以上 14 72 1012
26 19:00 北東 4 10km以上 14 72 1012
26 18:00 北東 4 10km以上 15 63 1012
26 17:00 北東 4 10km以上 15 59 1012
26 16:00 東北東 5 10km以上 16 55 1013
26 15:00 東北東 7 10km以上 16 55 1013
26 14:00 東北東 6 10km以上 16 55 1013
26 13:00 東北東 6 10km以上 17 48 1014
26 12:00 東北東 5 10km以上 17 45 1014
26 11:00 北東 4 10km以上 16 48 1015
26 10:00 北東 3 10km以上 16 48 1015
26 09:00 不定 2 10km以上 14 63 1015
26 08:00 南西 2 10km以上 13 72 1015
26 07:00 南西 2 10km以上 12 82 1015
26 06:00 3 10km以上 10 82 1014
26 05:00 2 10km以上 11 82 1014
26 04:00 不定 1 10km以上 11 82 1013
26 03:00 不定 1 10km以上 12 71 1013 弱いしゅう雨
26 02:00 不定 1 10km以上 12 77 1013 弱いしゅう雨
26 01:00 西北西 1 10km以上 12 71 1013
26 00:00 不定 1 10km以上 12 71 1013
25 23:00 西 3 10km以上 12 71 1013
25 22:00 西北西 2 10km以上 12 71 1013
25 21:00 西 3 10km以上 12 71 1013
25 20:00 西北西 2 10km以上 12 67 1012
25 19:00 西北西 3 10km以上 12 67 1012
25 18:00 西北西 3 10km以上 12 67 1012
25 17:00 西北西 4 10km以上 13 62 1011
25 16:00 北西 4 10km以上 13 67 1011 弱いしゅう雨
25 15:00 北西 5 10km以上 13 67 1010 弱いしゅう雨
25 14:00 北北西 6 10km以上 15 63 1010
25 13:00 北北西 6 10km以上 14 63 1010
25 12:00 北西 3 10km以上 13 72 1010 弱い霧雨
25 11:00 北北西 4 10km以上 14 77 1010 弱い霧雨
25 10:00 北北西 5 10km以上 14 72 1010 弱い霧雨
25 09:00 北北西 5 10km以上 13 77 1009 弱い霧雨
25 08:00 4 10km以上 14 77 1009
25 07:00 北北西 5 10km以上 13 82 1008 弱い霧雨
25 06:00 北北西 5 10km以上 13 77 1007 弱い霧雨
25 05:00 北北西 4 10km以上 13 82 1006 弱いしゅう雨
25 04:00 北北西 3 4,000m 13 82 1006 弱いしゅう雨 もや
25 03:00 西北西 2 5,000m 13 82 1005 弱いしゅう雨 もや
25 02:00 西北西 3 8,000m 13 82 1006 弱いしゅう雨
25 01:00 西 3 10km以上 13 88 1006 弱いしゅう雨
25 00:00 北西 5 10km以上 13 88 1006 弱いしゅう雨
24 23:00 北西 5 10km以上 15 94 1006 弱いしゅう雨
24 22:00 西北西 3 10km以上 15 88 1006 弱いしゅう雨
24 21:00 西北西 3 10km以上 16 88 1005 弱いしゅう雨
RJOH 261100Z 05005KT 9999 FEW030 SCT180 BKN/// 14/09 Q1012
RJOH 261000Z 04007KT 9999 FEW030 SCT180 BKN/// 14/09 Q1012
RJOH 260900Z 05008KT 9999 FEW030 SCT180 BKN200 15/08 Q1012
RJOH 260800Z 05008KT 9999 FEW030 BKN230 15/07 Q1012
RJOH 260700Z 06009KT 9999 FEW030 BKN230 16/07 Q1013
RJOH 260600Z 06013KT 9999 FEW030 BKN230 16/07 Q1013
RJOH 260500Z 06012KT 9999 FEW030 BKN230 16/07 Q1013
RJOH 260400Z 06011KT 9999 FEW030 BKN250 17/06 Q1014
RJOH 260300Z 06009KT 9999 FEW030 BKN250 17/05 Q1014
RJOH 260200Z 04007KT 010V070 9999 FEW030 BKN250 16/05 Q1015
RJOH 260100Z 05005KT 020V080 9999 FEW020 SCT250 16/05 Q1015
RJOH 260000Z VRB04KT 9999 FEW015 SCT020 BKN030 14/07 Q1015
RJOH 252300Z 22004KT 200V260 9999 FEW015 BKN030 13/08 Q1015
RJOH 252200Z 22003KT 9999 FEW015 BKN030 12/09 Q1015
RJOH 252100Z 19005KT 9999 FEW005 SCT035 10/07 Q1014
RJOH 252000Z 18003KT 9999 FEW010 SCT015 BKN035 11/08 Q1014
RJOH 251900Z VRB02KT 9999 FEW010 SCT015 BKN035 11/08 Q1013
RJOH 251800Z VRB02KT 9999 -SHRA FEW010 BKN015 BKN035 12/07 Q1013
RJOH 251700Z VRB02KT 9999 -SHRA FEW010 BKN015 BKN030 12/08 Q1013
RJOH 251600Z 29002KT 9999 FEW015 BKN020 BKN030 12/07 Q1013
RJOH 251500Z VRB01KT 9999 FEW010 SCT015 BKN020 12/07 Q1013
RJOH 251400Z 26005KT 9999 FEW015 BKN020 OVC030 12/07 Q1013
RJOH 251300Z 30003KT 9999 FEW015 BKN020 OVC030 12/07 Q1013
RJOH 251200Z 27005KT 9999 FEW015 BKN020 OVC030 12/07 Q1013
RJOH 251100Z 29004KT 9999 FEW015 BKN020 OVC030 12/06 Q1012
RJOH 251000Z 29006KT 9999 FEW015 BKN020 BKN030 12/06 Q1012
RJOH 250900Z 29006KT 9999 FEW015 BKN020 BKN030 12/06 Q1012
RJOH 250800Z 30008KT 9999 FEW010 BKN020 BKN030 13/06 Q1011
RJOH 250700Z 31007KT 270V340 9999 -SHRA FEW008 SCT010 BKN020 13/07 Q1011
RJOH 250600Z 31009KT 9999 -SHRA FEW010 BKN020 BKN030 13/07 Q1010
RJOH 250500Z 33011KT 9999 FEW010 SCT020 BKN030 15/08 Q1010
RJOH 250400Z 33011KT 9999 FEW008 SCT015 BKN020 14/07 Q1010
RJOH 250300Z 31006KT 9999 -DZ FEW008 BKN015 BKN025 13/08 Q1010
RJOH 250200Z 33007KT 9999 -DZ FEW008 BKN015 BKN025 14/10 Q1010
RJOH 250100Z 33009KT 9999 -DZ FEW008 BKN012 BKN025 14/09 Q1010
RJOH 250000Z 34010KT 9999 -DZ FEW008 BKN012 BKN025 13/09 Q1009
RJOH 242300Z 36007KT 9999 FEW008 BKN012 BKN025 14/10 Q1009
RJOH 242200Z 34010KT 9999 -DZ FEW005 SCT008 OVC012 13/10 Q1008
RJOH 242100Z 33010KT 9999 -DZ FEW003 SCT005 BKN008 13/09 Q1007
RJOH 242000Z 33008KT 290V020 9999 -SHRA FEW005 BKN008 BKN015 13/10 Q1006
RJOH 241900Z 33005KT 4000 -SHRA BR FEW005 BKN008 OVC015 13/10 Q1006
RJOH 241800Z 29004KT 5000 -SHRA BR FEW003 BKN008 OVC015 13/10 Q1005
RJOH 241700Z 30005KT 8000 -SHRA FEW005 BKN008 OVC015 13/10 Q1006
RJOH 241600Z 28006KT 9999 -SHRA FEW005 BKN008 OVC015 13/11 Q1006
RJOH 241500Z 31009KT 9999 -SHRA FEW003 BKN008 OVC015 13/11 Q1006
RJOH 241400Z 32009KT 9999 -SHRA FEW003 BKN008 OVC015 15/14 Q1006
RJOH 241300Z 29005KT 9999 -SHRA FEW003 BKN008 OVC015 15/13 Q1006
RJOH 241200Z 29006KT 9999 -SHRA FEW003 BKN008 OVC015 16/14 Q1005